createdAt,value
2023-03-21T00:04:48.421Z,9.55
2023-03-21T00:09:55.199Z,9.47
2023-03-21T00:15:04.742Z,9.56
2023-03-21T00:20:06.316Z,9.56
2023-03-21T00:25:08.262Z,9.46
2023-03-21T00:30:09.479Z,9.64
2023-03-21T00:35:45.313Z,9.87
2023-03-21T00:40:35.432Z,9.89
2023-03-21T00:45:41.747Z,9.78
2023-03-21T00:50:45.394Z,9.71
2023-03-21T00:55:46.693Z,9.82
2023-03-21T01:00:47.994Z,9.62
2023-03-21T01:06:05.744Z,9.68
2023-03-21T01:11:07.252Z,9.46
2023-03-21T01:16:08.556Z,9.60
2023-03-21T01:21:09.848Z,9.57
2023-03-21T01:26:11.371Z,9.68
2023-03-21T01:31:12.677Z,9.66
2023-03-21T01:36:14.640Z,9.79
2023-03-21T01:41:19.948Z,9.59
2023-03-21T01:46:21.655Z,9.60
2023-03-21T01:51:23.005Z,9.36
2023-03-21T01:56:24.224Z,9.28
2023-03-21T02:01:25.659Z,9.16
2023-03-21T02:06:30.284Z,9.34
2023-03-21T02:11:32.256Z,9.49
2023-03-21T02:16:33.581Z,9.61
2023-03-21T02:21:34.878Z,9.56
2023-03-21T02:26:42.512Z,9.57
2023-03-21T02:31:45.164Z,9.58
2023-03-21T02:36:46.439Z,9.57
2023-03-21T02:41:47.681Z,9.68
2023-03-21T02:46:53.799Z,9.64
2023-03-21T02:52:00.258Z,9.60
2023-03-21T02:57:06.519Z,9.63
2023-03-21T03:02:07.801Z,9.63
2023-03-21T03:07:09.116Z,9.70
2023-03-21T03:12:10.576Z,9.57
2023-03-21T03:17:11.810Z,9.57
2023-03-21T03:22:13.039Z,9.58
2023-03-21T03:27:15.662Z,9.55
2023-03-21T03:32:16.926Z,9.55
2023-03-21T03:37:18.134Z,9.59
2023-03-21T03:42:27.977Z,9.62
2023-03-21T03:47:33.747Z,9.56
2023-03-21T03:52:42.063Z,9.36
2023-03-21T03:57:48.255Z,9.32
2023-03-21T04:02:49.504Z,9.49
2023-03-21T04:07:51.141Z,9.45
2023-03-21T04:12:52.600Z,9.63
2023-03-21T04:17:53.907Z,9.59
2023-03-21T04:22:56.391Z,9.60
2023-03-21T04:27:57.885Z,9.64
2023-03-21T04:33:01.050Z,9.76
2023-03-21T04:38:02.300Z,9.61
2023-03-21T04:43:03.502Z,9.48
2023-03-21T04:48:04.839Z,9.25
2023-03-21T04:53:06.147Z,9.06
2023-03-21T04:58:07.375Z,9.03
2023-03-21T05:03:09.243Z,9.28
2023-03-21T05:08:10.632Z,9.05
2023-03-21T05:13:11.921Z,9.11
2023-03-21T05:18:13.244Z,9.18
2023-03-21T05:23:18.559Z,9.16
2023-03-21T05:28:19.862Z,9.42
2023-03-21T05:33:21.093Z,9.34
2023-03-21T05:38:22.314Z,9.31
2023-03-21T05:43:23.724Z,9.09
2023-03-21T05:48:25.267Z,9.34
2023-03-21T05:53:26.494Z,9.47
2023-03-21T05:58:27.773Z,9.51
2023-03-21T06:03:29.029Z,9.45
2023-03-21T06:08:30.392Z,9.50
2023-03-21T06:13:32.920Z,9.48
2023-03-21T06:18:34.143Z,9.36
2023-03-21T06:23:36.670Z,9.37
2023-03-21T06:28:38.275Z,9.29
2023-03-21T06:33:39.535Z,9.17
2023-03-21T06:38:40.924Z,9.30
2023-03-21T06:43:42.190Z,9.40
2023-03-21T06:48:44.650Z,9.47
2023-03-21T06:53:48.236Z,9.64
2023-03-21T06:58:49.793Z,10.04
2023-03-21T07:03:52.038Z,10.01
2023-03-21T07:08:53.306Z,10.32
2023-03-21T07:13:54.584Z,9.98
2023-03-21T07:18:56.056Z,10.60
2023-03-21T07:23:57.295Z,10.82
2023-03-21T07:28:58.558Z,10.79
2023-03-21T07:33:59.786Z,10.99
2023-03-21T07:39:01.155Z,10.94
2023-03-21T07:44:03.628Z,11.22
2023-03-21T07:49:06.029Z,11.64
2023-03-21T07:54:07.377Z,12.00
2023-03-21T07:59:08.643Z,12.40
2023-03-21T08:04:09.888Z,12.42
2023-03-21T08:09:11.094Z,12.73
2023-03-21T08:14:12.296Z,12.39
2023-03-21T08:19:13.569Z,12.79
2023-03-21T08:24:14.824Z,13.03
2023-03-21T08:29:16.215Z,12.91
2023-03-21T08:34:18.221Z,12.20
2023-03-21T08:39:19.721Z,12.59
2023-03-21T08:44:22.127Z,13.31
2023-03-21T08:49:23.384Z,13.37
2023-03-21T08:54:24.595Z,13.01
2023-03-21T08:59:25.877Z,13.69
2023-03-21T09:04:27.811Z,13.88
2023-03-21T09:09:29.087Z,14.20
2023-03-21T09:14:30.326Z,13.79
2023-03-21T09:19:31.870Z,14.56
2023-03-21T09:24:33.138Z,14.65
2023-03-21T09:29:34.965Z,14.11
2023-03-21T09:34:41.091Z,14.32
2023-03-21T09:39:42.959Z,14.50
2023-03-21T09:44:44.577Z,14.52
2023-03-21T09:49:49.118Z,14.68
2023-03-21T09:54:50.645Z,14.83
2023-03-21T09:59:53.739Z,15.66
2023-03-21T10:04:55.650Z,15.33
2023-03-21T10:09:57.613Z,15.82
2023-03-21T10:14:58.962Z,15.79
2023-03-21T10:20:00.237Z,15.60
2023-03-21T10:25:01.499Z,15.76
2023-03-21T10:30:02.913Z,15.60
2023-03-21T10:35:04.999Z,15.80
2023-03-21T10:40:08.730Z,15.98
2023-03-21T10:45:09.965Z,15.45
2023-03-21T10:50:11.590Z,15.83
2023-03-21T10:55:13.065Z,16.98
2023-03-21T11:00:18.106Z,17.63
2023-03-21T11:05:20.729Z,17.95
2023-03-21T11:10:28.642Z,18.24
2023-03-21T11:15:30.794Z,18.29
2023-03-21T11:20:33.625Z,18.76
2023-03-21T11:25:34.963Z,18.54
2023-03-21T11:30:36.251Z,19.30
2023-03-21T11:35:37.908Z,19.46
2023-03-21T11:40:39.600Z,18.58
2023-03-21T11:45:41.752Z,19.02
2023-03-21T11:50:43.019Z,18.32
2023-03-21T11:55:44.380Z,19.16
2023-03-21T12:00:45.763Z,19.50
2023-03-21T12:05:46.974Z,20.19
2023-03-21T12:10:48.310Z,20.04
2023-03-21T12:15:49.661Z,20.19
2023-03-21T12:20:51.064Z,20.26
2023-03-21T12:25:54.841Z,19.59
2023-03-21T12:30:56.335Z,20.13
2023-03-21T12:35:57.670Z,20.36
2023-03-21T12:40:59.000Z,20.59
2023-03-21T12:46:00.383Z,20.41
2023-03-21T12:51:01.813Z,21.14
2023-03-21T12:56:03.066Z,20.93
2023-03-21T13:01:04.840Z,21.07
2023-03-21T13:06:06.147Z,20.87
2023-03-21T13:11:07.405Z,21.43
2023-03-21T13:16:08.702Z,21.19
2023-03-21T13:21:09.989Z,22.01
2023-03-21T13:26:12.490Z,21.60
2023-03-21T13:31:13.829Z,21.83
2023-03-21T13:36:15.124Z,21.90
2023-03-21T13:41:16.470Z,21.67
2023-03-21T13:46:17.864Z,21.63
2023-03-21T13:51:19.213Z,21.64
2023-03-21T13:56:21.002Z,22.13
2023-03-21T14:01:23.555Z,22.69
2023-03-21T14:06:24.849Z,22.57
2023-03-21T14:11:26.123Z,22.96
2023-03-21T14:16:28.752Z,22.39
2023-03-21T14:21:30.411Z,22.05
2023-03-21T14:26:32.010Z,21.59
2023-03-21T14:31:33.412Z,21.83
2023-03-21T14:36:36.053Z,21.68
2023-03-21T14:41:39.283Z,21.75
2023-03-21T14:46:41.906Z,21.56
2023-03-21T14:51:43.327Z,21.11
2023-03-21T15:01:48.951Z,20.95
2023-03-21T15:06:50.269Z,20.68
2023-03-21T15:11:51.923Z,20.92
2023-03-21T15:16:53.316Z,20.27
2023-03-21T15:21:54.646Z,20.42
2023-03-21T15:26:55.910Z,20.19
2023-03-21T15:31:57.181Z,19.77
2023-03-21T15:36:58.458Z,19.59
2023-03-21T15:41:59.760Z,18.94
2023-03-21T15:47:02.242Z,18.51
2023-03-21T15:52:03.570Z,18.52
2023-03-21T15:57:09.361Z,17.97
2023-03-21T16:02:10.910Z,17.89
2023-03-21T16:07:16.862Z,17.53
2023-03-21T16:12:18.976Z,17.49
2023-03-21T16:17:20.697Z,17.61
2023-03-21T16:22:22.331Z,17.52
2023-03-21T16:27:23.779Z,17.64
2023-03-21T16:32:25.316Z,17.37
2023-03-21T16:37:26.522Z,17.12
2023-03-21T16:42:27.947Z,16.75
2023-03-21T16:47:29.386Z,16.57
2023-03-21T16:52:30.637Z,16.40
2023-03-21T17:02:49.579Z,16.30
2023-03-21T17:07:50.837Z,16.17
2023-03-21T17:12:52.111Z,16.10
2023-03-21T17:17:55.548Z,16.10
2023-03-21T17:22:56.787Z,16.23
2023-03-21T17:27:58.103Z,16.03
2023-03-21T17:32:59.359Z,15.87
2023-03-21T17:38:00.641Z,15.82
2023-03-21T17:43:02.000Z,15.47
2023-03-21T17:48:04.038Z,15.55
2023-03-21T17:53:05.306Z,15.19
2023-03-21T17:58:06.697Z,15.04
2023-03-21T18:03:07.947Z,15.09
2023-03-21T18:08:11.997Z,14.94
2023-03-21T18:13:13.721Z,15.19
2023-03-21T18:18:14.972Z,15.32
2023-03-21T18:23:18.697Z,15.37
2023-03-21T18:28:21.209Z,15.29
2023-03-21T18:33:22.663Z,15.13
2023-03-21T18:38:23.875Z,15.03
2023-03-21T18:44:01.546Z,14.70
2023-03-21T18:48:46.624Z,15.18
2023-03-21T18:53:47.897Z,15.34
2023-03-21T18:58:49.180Z,15.20
2023-03-21T19:04:14.458Z,15.10
2023-03-21T19:09:14.499Z,15.06
2023-03-21T19:14:16.188Z,14.55
2023-03-21T19:19:18.760Z,14.38
2023-03-21T19:24:27.743Z,14.48
2023-03-21T19:29:29.935Z,14.63
2023-03-21T19:34:31.463Z,14.39
2023-03-21T19:39:32.905Z,14.23
2023-03-21T19:44:34.264Z,14.55
2023-03-21T19:50:10.045Z,14.44
2023-03-21T19:54:57.268Z,14.30
2023-03-21T19:59:58.943Z,14.38
2023-03-21T20:05:01.365Z,14.18
2023-03-21T20:10:02.727Z,14.06
2023-03-21T20:15:16.417Z,13.73
2023-03-21T20:20:18.539Z,13.69
2023-03-21T20:25:22.001Z,13.69
2023-03-21T20:30:23.412Z,13.77
2023-03-21T20:36:05.613Z,13.38
2023-03-21T20:40:47.136Z,13.36
2023-03-21T20:45:48.413Z,13.35
2023-03-21T20:50:49.950Z,12.74
2023-03-21T20:55:51.422Z,13.18
2023-03-21T21:00:53.037Z,13.24
2023-03-21T21:05:54.917Z,13.11
2023-03-21T21:11:42.758Z,12.91
2023-03-21T21:16:17.666Z,13.22
2023-03-21T21:21:18.927Z,13.21
2023-03-21T21:26:20.140Z,13.06
2023-03-21T21:31:23.860Z,13.31
2023-03-21T21:36:26.009Z,13.08
2023-03-21T21:41:27.702Z,13.05
2023-03-21T21:46:28.959Z,13.05
2023-03-21T21:51:33.082Z,12.96
2023-03-21T21:56:38.483Z,12.40
2023-03-21T22:01:42.299Z,12.58
2023-03-21T22:06:43.584Z,12.53
2023-03-21T22:11:44.815Z,12.25
2023-03-21T22:16:46.777Z,12.29
2023-03-21T22:21:48.163Z,12.56
2023-03-21T22:26:49.438Z,12.60
2023-03-21T22:31:51.340Z,12.79
2023-03-21T22:36:52.593Z,12.78
2023-03-21T22:42:04.591Z,12.60
2023-03-21T22:47:06.080Z,12.68
2023-03-21T22:52:07.356Z,12.31
2023-03-21T22:57:08.828Z,12.41
2023-03-21T23:02:10.112Z,12.35
2023-03-21T23:07:11.606Z,12.12
2023-03-21T23:12:14.788Z,11.98
2023-03-21T23:17:16.415Z,12.02
2023-03-21T23:22:17.672Z,12.29
2023-03-21T23:27:19.251Z,12.30
2023-03-21T23:32:20.682Z,11.98
2023-03-21T23:37:24.841Z,11.75
2023-03-21T23:42:27.052Z,11.77
2023-03-21T23:47:28.339Z,11.86
2023-03-21T23:52:29.593Z,11.90
2023-03-21T23:57:30.795Z,12.19
